Terminal Aerodrome Forecast
Issued by NWS

Home | Current Version | Previous Version | Text Only | Print | Product List | Glossary On
Versions: 1 2 3 4 5 6 7 8 9 10 11 12 13 14 15 16 17
000
FTUS45 KTFX 171100
TAFHLN
TAF
KHLN 171131Z 1712/1812 VRB03KT P6SM SCT070 BKN110
     FM171900 26011KT P6SM SCT060 BKN080
     FM180200 25006KT P6SM SCT050 BKN070 PROB30 1807/1812 -SHRA
      BKN040=

USA.gov is the U.S. government's official web portal to all federal, state and local government web resources and services.